sensor_id;sensor_type;location;lat;lon;timestamp;pressure;altitude;pressure_sealevel;temperature;humidity
59029;BME280;45919;51.420;5.454;2023-01-25T00:00:43;103574.84;;;2.69;71.30
59029;BME280;45919;51.420;5.454;2023-01-25T00:01:44;103579.22;;;2.70;71.35
59029;BME280;45919;51.420;5.454;2023-01-25T00:02:46;103573.31;;;2.71;71.25
59029;BME280;45919;51.420;5.454;2023-01-25T00:03:47;103583.78;;;2.72;71.38
59029;BME280;45919;51.420;5.454;2023-01-25T00:04:48;103573.44;;;2.72;71.32
59029;BME280;45919;51.420;5.454;2023-01-25T00:05:57;103568.44;;;2.74;71.22
59029;BME280;45919;51.420;5.454;2023-01-25T00:06:58;103571.94;;;2.74;71.30
59029;BME280;45919;51.420;5.454;2023-01-25T00:08:00;103565.06;;;2.75;71.33
59029;BME280;45919;51.420;5.454;2023-01-25T00:09:01;103563.41;;;2.75;71.18
59029;BME280;45919;51.420;5.454;2023-01-25T00:10:03;103570.34;;;2.77;71.30
59029;BME280;45919;51.420;5.454;2023-01-25T00:11:04;103566.13;;;2.77;71.29
59029;BME280;45919;51.420;5.454;2023-01-25T00:12:06;103567.16;;;2.79;71.41
59029;BME280;45919;51.420;5.454;2023-01-25T00:13:08;103565.50;;;2.80;71.54
59029;BME280;45919;51.420;5.454;2023-01-25T00:14:09;103559.69;;;2.82;71.58
59029;BME280;45919;51.420;5.454;2023-01-25T00:15:11;103564.09;;;2.83;71.70
59029;BME280;45919;51.420;5.454;2023-01-25T00:16:13;103557.13;;;2.82;71.42
59029;BME280;45919;51.420;5.454;2023-01-25T00:17:15;103564.84;;;2.82;71.61
59029;BME280;45919;51.420;5.454;2023-01-25T00:18:16;103560.59;;;2.83;71.53
59029;BME280;45919;51.420;5.454;2023-01-25T00:19:17;103567.44;;;2.82;71.68
59029;BME280;45919;51.420;5.454;2023-01-25T00:20:19;103566.56;;;2.82;71.30
59029;BME280;45919;51.420;5.454;2023-01-25T00:21:21;103561.38;;;2.82;71.37
59029;BME280;45919;51.420;5.454;2023-01-25T00:22:23;103558.81;;;2.82;71.58
59029;BME280;45919;51.420;5.454;2023-01-25T00:23:25;103563.19;;;2.83;71.46
59029;BME280;45919;51.420;5.454;2023-01-25T00:24:26;103556.22;;;2.82;71.42
59029;BME280;45919;51.420;5.454;2023-01-25T00:25:28;103563.19;;;2.83;71.26
59029;BME280;45919;51.420;5.454;2023-01-25T00:26:30;103560.47;;;2.81;71.22
59029;BME280;45919;51.420;5.454;2023-01-25T00:27:31;103560.59;;;2.83;71.47
59029;BME280;45919;51.420;5.454;2023-01-25T00:28:33;103566.69;;;2.83;71.26
59029;BME280;45919;51.420;5.454;2023-01-25T00:29:34;103562.41;;;2.84;71.26
59029;BME280;45919;51.420;5.454;2023-01-25T00:30:36;103560.75;;;2.84;71.31
59029;BME280;45919;51.420;5.454;2023-01-25T00:31:45;103569.41;;;2.85;71.14
59029;BME280;45919;51.420;5.454;2023-01-25T00:32:57;103566.81;;;2.85;71.46
59029;BME280;45919;51.420;5.454;2023-01-25T00:35:08;103563.31;;;2.84;71.23
59029;BME280;45919;51.420;5.454;2023-01-25T00:37:42;103565.00;;;2.84;71.34
59029;BME280;45919;51.420;5.454;2023-01-25T00:38:44;103561.53;;;2.83;71.27
59029;BME280;45919;51.420;5.454;2023-01-25T00:39:47;103560.75;;;2.84;71.33
59029;BME280;45919;51.420;5.454;2023-01-25T00:40:49;103564.25;;;2.85;71.32
59029;BME280;45919;51.420;5.454;2023-01-25T00:41:50;103557.41;;;2.85;71.13
59029;BME280;45919;51.420;5.454;2023-01-25T00:42:52;103477.94;;;2.34;70.92
59029;BME280;45919;51.420;5.454;2023-01-25T00:43:53;103559.09;;;2.85;71.35
59029;BME280;45919;51.420;5.454;2023-01-25T00:44:55;103560.00;;;2.85;71.38
59029;BME280;45919;51.420;5.454;2023-01-25T00:46:00;103564.25;;;2.85;71.13
59029;BME280;45919;51.420;5.454;2023-01-25T00:47:01;103564.09;;;2.83;70.93
59029;BME280;45919;51.420;5.454;2023-01-25T00:48:03;103553.66;;;2.82;70.91
59029;BME280;45919;51.420;5.454;2023-01-25T00:49:05;103557.75;;;2.80;71.04
59029;BME280;45919;51.420;5.454;2023-01-25T00:50:06;103567.16;;;2.79;71.11
59029;BME280;45919;51.420;5.454;2023-01-25T00:51:08;103561.72;;;2.76;70.83
59029;BME280;45919;51.420;5.454;2023-01-25T00:52:10;103564.94;;;2.73;70.74
59029;BME280;45919;51.420;5.454;2023-01-25T00:53:11;103562.06;;;2.70;70.79
59029;BME280;45919;51.420;5.454;2023-01-25T00:54:13;103557.66;;;2.69;70.96
59029;BME280;45919;51.420;5.454;2023-01-25T00:55:14;103565.13;;;2.66;70.91
59029;BME280;45919;51.420;5.454;2023-01-25T00:56:16;103561.63;;;2.66;70.71
59029;BME280;45919;51.420;5.454;2023-01-25T00:57:17;103564.06;;;2.64;70.90
59029;BME280;45919;51.420;5.454;2023-01-25T00:58:19;103554.66;;;2.65;70.92
59029;BME280;45919;51.420;5.454;2023-01-25T00:59:20;103559.97;;;2.66;70.91
59029;BME280;45919;51.420;5.454;2023-01-25T01:00:22;103563.59;;;2.68;71.17
59029;BME280;45919;51.420;5.454;2023-01-25T01:01:23;103553.28;;;2.68;71.21
59029;BME280;45919;51.420;5.454;2023-01-25T01:02:25;103558.72;;;2.71;71.45
59029;BME280;45919;51.420;5.454;2023-01-25T01:03:26;103550.09;;;2.71;71.36
59029;BME280;45919;51.420;5.454;2023-01-25T01:04:28;103554.47;;;2.72;71.23
59029;BME280;45919;51.420;5.454;2023-01-25T01:05:30;103551.09;;;2.73;71.48
59029;BME280;45919;51.420;5.454;2023-01-25T01:06:33;103551.28;;;2.74;71.28
59029;BME280;45919;51.420;5.454;2023-01-25T01:07:35;103459.03;;;2.24;71.22
59029;BME280;45919;51.420;5.454;2023-01-25T01:08:40;103548.81;;;2.76;71.58
59029;BME280;45919;51.420;5.454;2023-01-25T01:09:41;103548.81;;;2.76;71.30
59029;BME280;45919;51.420;5.454;2023-01-25T01:10:43;103545.47;;;2.77;71.48
59029;BME280;45919;51.420;5.454;2023-01-25T01:11:45;103546.38;;;2.78;71.49
59029;BME280;45919;51.420;5.454;2023-01-25T01:12:46;103546.50;;;2.79;71.40
59029;BME280;45919;51.420;5.454;2023-01-25T01:13:48;103548.19;;;2.79;71.50
59029;BME280;45919;51.420;5.454;2023-01-25T01:14:49;103542.88;;;2.77;70.75
59029;BME280;45919;51.420;5.454;2023-01-25T01:15:50;103545.31;;;2.75;71.38
59029;BME280;45919;51.420;5.454;2023-01-25T01:16:52;103551.28;;;2.74;71.28
59029;BME280;45919;51.420;5.454;2023-01-25T01:17:54;103537.31;;;2.72;71.06
59029;BME280;45919;51.420;5.454;2023-01-25T01:18:55;103536.25;;;2.70;70.98
59029;BME280;45919;51.420;5.454;2023-01-25T01:19:57;103533.53;;;2.69;71.18
59029;BME280;45919;51.420;5.454;2023-01-25T01:20:58;103541.28;;;2.69;70.70
59029;BME280;45919;51.420;5.454;2023-01-25T01:22:00;103537.66;;;2.67;70.96
59029;BME280;45919;51.420;5.454;2023-01-25T01:23:01;103541.91;;;2.66;70.68
59029;BME280;45919;51.420;5.454;2023-01-25T01:24:02;103538.25;;;2.64;71.09
59029;BME280;45919;51.420;5.454;2023-01-25T01:25:04;103539.19;;;2.65;70.97
59029;BME280;45919;51.420;5.454;2023-01-25T01:26:07;103541.75;;;2.65;71.43
59029;BME280;45919;51.420;5.454;2023-01-25T01:27:09;103538.25;;;2.64;71.21
59029;BME280;45919;51.420;5.454;2023-01-25T01:28:10;103539.94;;;2.63;71.10
59029;BME280;45919;51.420;5.454;2023-01-25T01:29:12;103539.19;;;2.65;71.19
59029;BME280;45919;51.420;5.454;2023-01-25T01:30:14;103529.78;;;2.65;71.11
59029;BME280;45919;51.420;5.454;2023-01-25T01:31:17;103532.34;;;2.65;71.30
59029;BME280;45919;51.420;5.454;2023-01-25T01:32:19;103542.94;;;2.68;71.26
59029;BME280;45919;51.420;5.454;2023-01-25T01:33:20;103542.16;;;2.69;71.39
59029;BME280;45919;51.420;5.454;2023-01-25T01:34:22;103537.19;;;2.71;71.47
59029;BME280;45919;51.420;5.454;2023-01-25T01:35:23;103540.63;;;2.71;70.91
59029;BME280;45919;51.420;5.454;2023-01-25T01:36:26;103538.84;;;2.70;70.56
59029;BME280;45919;51.420;5.454;2023-01-25T01:37:27;103542.16;;;2.69;71.35
59029;BME280;45919;51.420;5.454;2023-01-25T01:38:29;103533.53;;;2.69;71.26
59029;BME280;45919;51.420;5.454;2023-01-25T01:39:30;103532.50;;;2.67;71.28
59029;BME280;45919;51.420;5.454;2023-01-25T01:40:32;103535.81;;;2.66;71.61
59029;BME280;45919;51.420;5.454;2023-01-25T01:41:33;103537.50;;;2.65;71.56
59029;BME280;45919;51.420;5.454;2023-01-25T01:42:54;103534.75;;;2.63;71.53
59029;BME280;45919;51.420;5.454;2023-01-25T01:43:55;103539.19;;;2.65;71.47
59029;BME280;45919;51.420;5.454;2023-01-25T01:44:57;103540.09;;;2.65;71.38
59029;BME280;45919;51.420;5.454;2023-01-25T01:45:59;103540.22;;;2.67;71.34
59029;BME280;45919;51.420;5.454;2023-01-25T01:47:01;103545.41;;;2.67;71.56
59029;BME280;45919;51.420;5.454;2023-01-25T01:48:03;103543.88;;;2.69;71.48
59029;BME280;45919;51.420;5.454;2023-01-25T01:50:24;103542.03;;;2.68;70.97
59029;BME280;45919;51.420;5.454;2023-01-25T01:51:42;103543.72;;;2.67;71.46
59029;BME280;45919;51.420;5.454;2023-01-25T01:52:46;103539.44;;;2.68;71.05
59029;BME280;45919;51.420;5.454;2023-01-25T01:53:50;103546.44;;;2.69;71.35
59029;BME280;45919;51.420;5.454;2023-01-25T01:54:57;103542.94;;;2.68;71.18
59029;BME280;45919;51.420;5.454;2023-01-25T01:56:01;103543.56;;;2.66;70.92
59029;BME280;45919;51.420;5.454;2023-01-25T01:58:06;103544.06;;;2.61;70.82
59029;BME280;45919;51.420;5.454;2023-01-25T01:59:08;103542.25;;;2.60;70.67
59029;BME280;45919;51.420;5.454;2023-01-25T02:00:26;103550.75;;;2.59;70.85
59029;BME280;45919;51.420;5.454;2023-01-25T02:01:29;103542.09;;;2.59;70.74
59029;BME280;45919;51.420;5.454;2023-01-25T02:02:31;103552.44;;;2.59;70.86
59029;BME280;45919;51.420;5.454;2023-01-25T02:03:33;103549.84;;;2.59;70.96
59029;BME280;45919;51.420;5.454;2023-01-25T02:04:35;103542.09;;;2.59;71.00
59029;BME280;45919;51.420;5.454;2023-01-25T02:05:46;103544.81;;;2.60;71.18
59029;BME280;45919;51.420;5.454;2023-01-25T02:06:52;103540.44;;;2.59;70.97
59029;BME280;45919;51.420;5.454;2023-01-25T02:07:55;103534.34;;;2.59;70.81
59029;BME280;45919;51.420;5.454;2023-01-25T02:08:57;103541.19;;;2.58;70.78
59029;BME280;45919;51.420;5.454;2023-01-25T02:10:00;103543.75;;;2.58;70.90
59029;BME280;45919;51.420;5.454;2023-01-25T02:11:03;103545.47;;;2.58;70.91
59029;BME280;45919;51.420;5.454;2023-01-25T02:12:05;103534.97;;;2.56;70.87
59029;BME280;45919;51.420;5.454;2023-01-25T02:13:07;103533.16;;;2.55;70.91
59029;BME280;45919;51.420;5.454;2023-01-25T02:14:09;103538.19;;;2.54;70.68
59029;BME280;45919;51.420;5.454;2023-01-25T02:15:10;103536.38;;;2.53;70.82
59029;BME280;45919;51.420;5.454;2023-01-25T02:16:15;103537.13;;;2.51;70.64
59029;BME280;45919;51.420;5.454;2023-01-25T02:17:29;103530.31;;;2.52;70.76
59029;BME280;45919;51.420;5.454;2023-01-25T02:18:31;103531.97;;;2.51;70.82
59029;BME280;45919;51.420;5.454;2023-01-25T02:20:54;103530.44;;;2.54;70.78
59029;BME280;45919;51.420;5.454;2023-01-25T02:21:58;103530.44;;;2.54;70.99
59029;BME280;45919;51.420;5.454;2023-01-25T02:24:22;103531.66;;;2.57;71.26
59029;BME280;45919;51.420;5.454;2023-01-25T02:25:26;103532.69;;;2.59;71.18
59029;BME280;45919;51.420;5.454;2023-01-25T02:26:28;103534.50;;;2.60;71.13
59029;BME280;45919;51.420;5.454;2023-01-25T02:27:30;103530.25;;;2.61;71.26
59029;BME280;45919;51.420;5.454;2023-01-25T02:28:36;103537.34;;;2.63;71.29
59029;BME280;45919;51.420;5.454;2023-01-25T02:29:39;103535.41;;;2.61;71.07
59029;BME280;45919;51.420;5.454;2023-01-25T02:30:41;103527.66;;;2.61;71.04
59029;BME280;45919;51.420;5.454;2023-01-25T02:31:44;103533.56;;;2.60;70.99
59029;BME280;45919;51.420;5.454;2023-01-25T02:32:46;103526.63;;;2.59;71.11
59029;BME280;45919;51.420;5.454;2023-01-25T02:33:47;103533.44;;;2.58;71.08
59029;BME280;45919;51.420;5.454;2023-01-25T02:34:49;103525.69;;;2.58;71.42
59029;BME280;45919;51.420;5.454;2023-01-25T02:36:24;103520.53;;;2.58;71.36
59029;BME280;45919;51.420;5.454;2023-01-25T02:37:18;103524.16;;;2.60;71.29
59029;BME280;45919;51.420;5.454;2023-01-25T02:38:20;103513.84;;;2.60;71.17
59029;BME280;45919;51.420;5.454;2023-01-25T02:39:21;103519.16;;;2.62;71.04
59029;BME280;45919;51.420;5.454;2023-01-25T02:42:40;103515.16;;;2.66;71.34
59029;BME280;45919;51.420;5.454;2023-01-25T02:43:42;103515.34;;;2.67;71.22
59029;BME280;45919;51.420;5.454;2023-01-25T02:44:43;103519.72;;;2.68;71.16
59029;BME280;45919;51.420;5.454;2023-01-25T02:45:46;103516.34;;;2.69;71.30
59029;BME280;45919;51.420;5.454;2023-01-25T02:46:49;103515.47;;;2.69;71.46
59029;BME280;45919;51.420;5.454;2023-01-25T02:47:51;103512.09;;;2.70;71.34
59029;BME280;45919;51.420;5.454;2023-01-25T02:48:53;103516.53;;;2.71;71.54
59029;BME280;45919;51.420;5.454;2023-01-25T02:49:55;103518.31;;;2.72;71.31
59029;BME280;45919;51.420;5.454;2023-01-25T02:50:56;103508.13;;;2.73;71.29
59029;BME280;45919;51.420;5.454;2023-01-25T02:51:58;103512.56;;;2.74;71.39
59029;BME280;45919;51.420;5.454;2023-01-25T02:52:59;103512.69;;;2.76;71.54
59029;BME280;45919;51.420;5.454;2023-01-25T02:54:03;103511.78;;;2.75;71.61
59029;BME280;45919;51.420;5.454;2023-01-25T02:55:04;103508.28;;;2.75;71.36
59029;BME280;45919;51.420;5.454;2023-01-25T02:56:06;103509.06;;;2.74;71.11
59029;BME280;45919;51.420;5.454;2023-01-25T02:57:08;103509.81;;;2.73;70.84
59029;BME280;45919;51.420;5.454;2023-01-25T02:58:10;103506.34;;;2.72;71.31
59029;BME280;45919;51.420;5.454;2023-01-25T02:59:12;103505.28;;;2.70;71.26
59029;BME280;45919;51.420;5.454;2023-01-25T03:00:13;103500.00;;;2.69;71.28
59029;BME280;45919;51.420;5.454;2023-01-25T03:01:15;103509.41;;;2.68;71.20
59029;BME280;45919;51.420;5.454;2023-01-25T03:02:17;103505.16;;;2.69;71.29
59029;BME280;45919;51.420;5.454;2023-01-25T03:03:19;103506.03;;;2.69;71.29
59029;BME280;45919;51.420;5.454;2023-01-25T03:04:20;103508.47;;;2.68;71.43
59029;BME280;45919;51.420;5.454;2023-01-25T03:05:22;103507.59;;;2.67;71.21
59029;BME280;45919;51.420;5.454;2023-01-25T03:06:24;103511.84;;;2.67;71.36
59029;BME280;45919;51.420;5.454;2023-01-25T03:07:25;103512.59;;;2.66;71.34
59029;BME280;45919;51.420;5.454;2023-01-25T03:08:27;103510.00;;;2.66;71.44
59029;BME280;45919;51.420;5.454;2023-01-25T03:09:28;103514.28;;;2.65;71.35
59029;BME280;45919;51.420;5.454;2023-01-25T03:10:30;103510.00;;;2.66;71.40
59029;BME280;45919;51.420;5.454;2023-01-25T03:11:31;103509.88;;;2.64;71.23
59029;BME280;45919;51.420;5.454;2023-01-25T03:12:33;103508.22;;;2.65;71.37
59029;BME280;45919;51.420;5.454;2023-01-25T03:13:34;103506.38;;;2.63;71.38
59029;BME280;45919;51.420;5.454;2023-01-25T03:14:36;103510.78;;;2.65;71.13
59029;BME280;45919;51.420;5.454;2023-01-25T03:15:37;103498.63;;;2.63;70.99
59029;BME280;45919;51.420;5.454;2023-01-25T03:16:39;103503.66;;;2.62;70.99
59029;BME280;45919;51.420;5.454;2023-01-25T03:17:40;103502.78;;;2.61;71.29
59029;BME280;45919;51.420;5.454;2023-01-25T03:18:42;103502.59;;;2.60;71.07
59029;BME280;45919;51.420;5.454;2023-01-25T03:19:44;103504.31;;;2.59;71.17
59029;BME280;45919;51.420;5.454;2023-01-25T03:20:45;103491.09;;;2.56;70.85
59029;BME280;45919;51.420;5.454;2023-01-25T03:21:47;103493.53;;;2.55;70.72
59029;BME280;45919;51.420;5.454;2023-01-25T03:22:48;103490.81;;;2.53;70.88
59029;BME280;45919;51.420;5.454;2023-01-25T03:23:54;103488.13;;;2.51;70.96
59029;BME280;45919;51.420;5.454;2023-01-25T03:24:55;103484.63;;;2.51;70.99
59029;BME280;45919;51.420;5.454;2023-01-25T03:26:04;103480.22;;;2.50;71.14
59029;BME280;45919;51.420;5.454;2023-01-25T03:27:06;103487.84;;;2.48;71.37
59029;BME280;45919;51.420;5.454;2023-01-25T03:28:14;103484.22;;;2.46;71.11
59029;BME280;45919;51.420;5.454;2023-01-25T03:29:16;103488.44;;;2.46;70.94
59029;BME280;45919;51.420;5.454;2023-01-25T03:30:17;103491.81;;;2.45;71.18
59029;BME280;45919;51.420;5.454;2023-01-25T03:31:18;103488.31;;;2.44;71.36
59029;BME280;45919;51.420;5.454;2023-01-25T03:32:20;103493.22;;;2.41;70.87
59029;BME280;45919;51.420;5.454;2023-01-25T03:33:22;103492.03;;;2.37;71.08
59029;BME280;45919;51.420;5.454;2023-01-25T03:34:23;103497.78;;;2.35;70.68
59029;BME280;45919;51.420;5.454;2023-01-25T03:35:24;103483.69;;;2.31;70.86
59029;BME280;45919;51.420;5.454;2023-01-25T03:36:26;103486.91;;;2.29;70.60
59029;BME280;45919;51.420;5.454;2023-01-25T03:37:28;103484.94;;;2.26;71.06
59029;BME280;45919;51.420;5.454;2023-01-25T03:38:31;103477.06;;;2.24;70.91
59029;BME280;45919;51.420;5.454;2023-01-25T03:39:33;103477.81;;;2.23;70.87
59029;BME280;45919;51.420;5.454;2023-01-25T03:40:34;103474.34;;;2.23;70.82
59029;BME280;45919;51.420;5.454;2023-01-25T03:41:36;103475.09;;;2.22;70.89
59029;BME280;45919;51.420;5.454;2023-01-25T03:42:37;103473.44;;;2.22;71.15
59029;BME280;45919;51.420;5.454;2023-01-25T03:43:39;103469.19;;;2.23;71.00
59029;BME280;45919;51.420;5.454;2023-01-25T03:44:40;103472.84;;;2.25;71.21
59029;BME280;45919;51.420;5.454;2023-01-25T03:45:41;103472.97;;;2.26;71.08
59029;BME280;45919;51.420;5.454;2023-01-25T03:46:43;103470.53;;;2.28;71.03
59029;BME280;45919;51.420;5.454;2023-01-25T03:47:45;103470.66;;;2.30;71.31
59029;BME280;45919;51.420;5.454;2023-01-25T03:48:46;103468.22;;;2.31;71.15
59029;BME280;45919;51.420;5.454;2023-01-25T03:49:48;103472.63;;;2.32;71.07
59029;BME280;45919;51.420;5.454;2023-01-25T03:50:50;103470.19;;;2.34;71.11
59029;BME280;45919;51.420;5.454;2023-01-25T03:51:51;103472.00;;;2.35;71.28
59029;BME280;45919;51.420;5.454;2023-01-25T03:54:29;103474.84;;;2.38;71.27
59029;BME280;45919;51.420;5.454;2023-01-25T03:55:32;103476.69;;;2.39;71.34
59029;BME280;45919;51.420;5.454;2023-01-25T03:56:33;103478.47;;;2.40;71.22
59029;BME280;45919;51.420;5.454;2023-01-25T03:57:35;103475.16;;;2.41;71.15
59029;BME280;45919;51.420;5.454;2023-01-25T03:58:37;103476.19;;;2.43;71.37
59029;BME280;45919;51.420;5.454;2023-01-25T03:59:39;103482.25;;;2.44;71.37
59029;BME280;45919;51.420;5.454;2023-01-25T04:00:40;103472.84;;;2.44;71.33
59029;BME280;45919;51.420;5.454;2023-01-25T04:01:42;103478.91;;;2.45;71.50
59029;BME280;45919;51.420;5.454;2023-01-25T04:02:43;103476.47;;;2.46;71.03
59029;BME280;45919;51.420;5.454;2023-01-25T04:03:44;103473.88;;;2.46;71.10
59029;BME280;45919;51.420;5.454;2023-01-25T04:04:46;103473.75;;;2.45;70.87
59029;BME280;45919;51.420;5.454;2023-01-25T04:05:48;103469.47;;;2.45;71.19
59029;BME280;45919;51.420;5.454;2023-01-25T04:06:49;103479.66;;;2.44;71.01
59029;BME280;45919;51.420;5.454;2023-01-25T04:07:50;103478.00;;;2.44;70.78
59029;BME280;45919;51.420;5.454;2023-01-25T04:08:52;103475.28;;;2.43;70.86
59029;BME280;45919;51.420;5.454;2023-01-25T04:09:53;103473.63;;;2.43;70.87
59029;BME280;45919;51.420;5.454;2023-01-25T04:11:16;103464.97;;;2.43;71.29
59029;BME280;45919;51.420;5.454;2023-01-25T04:12:16;103469.34;;;2.44;71.13
59029;BME280;45919;51.420;5.454;2023-01-25T04:13:19;103467.53;;;2.43;71.09
59029;BME280;45919;51.420;5.454;2023-01-25T04:14:20;103465.72;;;2.42;71.19
59029;BME280;45919;51.420;5.454;2023-01-25T04:15:35;103464.97;;;2.43;71.16
59029;BME280;45919;51.420;5.454;2023-01-25T04:16:36;103457.84;;;2.40;71.35
59029;BME280;45919;51.420;5.454;2023-01-25T04:17:38;103467.28;;;2.39;71.41
59029;BME280;45919;51.420;5.454;2023-01-25T04:18:39;103461.81;;;2.36;71.36
59029;BME280;45919;51.420;5.454;2023-01-25T04:19:41;103461.66;;;2.35;71.40
59029;BME280;45919;51.420;5.454;2023-01-25T04:20:43;103463.50;;;2.36;71.01
59029;BME280;45919;51.420;5.454;2023-01-25T04:21:44;103466.22;;;2.37;71.10
59029;BME280;45919;51.420;5.454;2023-01-25T04:22:46;103466.22;;;2.37;71.40
59029;BME280;45919;51.420;5.454;2023-01-25T04:23:47;103460.28;;;2.38;71.08
59029;BME280;45919;51.420;5.454;2023-01-25T04:24:49;103461.94;;;2.38;71.46
59029;BME280;45919;51.420;5.454;2023-01-25T04:25:54;103458.63;;;2.39;71.08
59029;BME280;45919;51.420;5.454;2023-01-25T04:26:56;103456.03;;;2.39;71.55
59029;BME280;45919;51.420;5.454;2023-01-25T04:27:57;103461.19;;;2.39;71.09
59029;BME280;45919;51.420;5.454;2023-01-25T04:28:59;103452.53;;;2.38;71.52
59029;BME280;45919;51.420;5.454;2023-01-25T04:30:00;103463.00;;;2.40;71.04
59029;BME280;45919;51.420;5.454;2023-01-25T04:31:02;103462.09;;;2.39;71.14
59029;BME280;45919;51.420;5.454;2023-01-25T04:32:06;103454.38;;;2.39;71.26
59029;BME280;45919;51.420;5.454;2023-01-25T04:33:08;103458.63;;;2.39;71.21
59029;BME280;45919;51.420;5.454;2023-01-25T04:34:09;103456.03;;;2.39;71.33
59029;BME280;45919;51.420;5.454;2023-01-25T04:35:10;103454.19;;;2.38;71.24
59029;BME280;45919;51.420;5.454;2023-01-25T04:36:12;103458.47;;;2.37;71.01
59029;BME280;45919;51.420;5.454;2023-01-25T04:37:14;103453.00;;;2.34;70.89
59029;BME280;45919;51.420;5.454;2023-01-25T04:38:15;103453.78;;;2.33;70.56
59029;BME280;45919;51.420;5.454;2023-01-25T04:39:17;103456.25;;;2.32;70.64
59029;BME280;45919;51.420;5.454;2023-01-25T04:40:19;103456.84;;;2.29;70.90
59029;BME280;45919;51.420;5.454;2023-01-25T04:41:20;103456.72;;;2.27;70.93
59029;BME280;45919;51.420;5.454;2023-01-25T04:42:22;103449.88;;;2.28;70.72
59029;BME280;45919;51.420;5.454;2023-01-25T04:43:23;103453.09;;;2.25;71.04
59029;BME280;45919;51.420;5.454;2023-01-25T04:44:26;103451.28;;;2.24;70.88
59029;BME280;45919;51.420;5.454;2023-01-25T04:45:27;103451.28;;;2.24;71.06
59029;BME280;45919;51.420;5.454;2023-01-25T04:46:29;103449.44;;;2.23;71.25
59029;BME280;45919;51.420;5.454;2023-01-25T04:47:30;103453.72;;;2.23;71.19
59029;BME280;45919;51.420;5.454;2023-01-25T04:48:32;103452.81;;;2.22;70.92
59029;BME280;45919;51.420;5.454;2023-01-25T04:49:34;103454.47;;;2.22;71.30
59029;BME280;45919;51.420;5.454;2023-01-25T04:50:35;103455.25;;;2.21;70.96
59029;BME280;45919;51.420;5.454;2023-01-25T04:51:37;103453.59;;;2.21;71.22
59029;BME280;45919;51.420;5.454;2023-01-25T04:52:39;103447.50;;;2.21;70.75
59029;BME280;45919;51.420;5.454;2023-01-25T04:53:40;103451.75;;;2.20;70.99
59029;BME280;45919;51.420;5.454;2023-01-25T04:54:42;103448.25;;;2.20;70.79
59029;BME280;45919;51.420;5.454;2023-01-25T04:55:44;103452.69;;;2.21;70.81
59029;BME280;45919;51.420;5.454;2023-01-25T04:56:46;103447.50;;;2.21;70.80
59029;BME280;45919;51.420;5.454;2023-01-25T04:57:48;103448.44;;;2.21;70.92
59029;BME280;45919;51.420;5.454;2023-01-25T04:58:51;103445.84;;;2.21;71.24
59029;BME280;45919;51.420;5.454;2023-01-25T04:59:52;103439.00;;;2.22;71.02
59029;BME280;45919;51.420;5.454;2023-01-25T05:00:58;103430.66;;;2.24;71.23
59029;BME280;45919;51.420;5.454;2023-01-25T05:01:59;103433.22;;;2.24;71.05
59029;BME280;45919;51.420;5.454;2023-01-25T05:03:01;103435.81;;;2.24;71.01
59029;BME280;45919;51.420;5.454;2023-01-25T05:04:03;103433.97;;;2.23;70.95
59029;BME280;45919;51.420;5.454;2023-01-25T05:05:04;103431.41;;;2.23;71.06
59029;BME280;45919;51.420;5.454;2023-01-25T05:06:06;103427.94;;;2.23;70.97
59029;BME280;45919;51.420;5.454;2023-01-25T05:07:07;103433.22;;;2.24;71.27
59029;BME280;45919;51.420;5.454;2023-01-25T05:08:09;103427.94;;;2.23;71.04
59029;BME280;45919;51.420;5.454;2023-01-25T05:09:10;103423.66;;;2.23;70.90
59029;BME280;45919;51.420;5.454;2023-01-25T05:10:12;103422.78;;;2.23;70.92
59029;BME280;45919;51.420;5.454;2023-01-25T05:11:13;103421.84;;;2.22;70.86
59029;BME280;45919;51.420;5.454;2023-01-25T05:12:15;103421.06;;;2.23;70.94
59029;BME280;45919;51.420;5.454;2023-01-25T05:13:16;103420.34;;;2.24;70.98
59029;BME280;45919;51.420;5.454;2023-01-25T05:14:18;103422.00;;;2.24;70.95
59029;BME280;45919;51.420;5.454;2023-01-25T05:15:19;103422.13;;;2.25;71.01
59029;BME280;45919;51.420;5.454;2023-01-25T05:16:21;103419.53;;;2.25;71.31
59029;BME280;45919;51.420;5.454;2023-01-25T05:17:22;103422.13;;;2.25;71.22
59029;BME280;45919;51.420;5.454;2023-01-25T05:18:24;103425.63;;;2.26;71.34
59029;BME280;45919;51.420;5.454;2023-01-25T05:19:26;103417.88;;;2.26;71.10
59029;BME280;45919;51.420;5.454;2023-01-25T05:20:27;103420.47;;;2.26;71.09
59029;BME280;45919;51.420;5.454;2023-01-25T05:21:29;103414.25;;;2.24;71.18
59029;BME280;45919;51.420;5.454;2023-01-25T05:22:49;103410.16;;;2.26;71.05
59029;BME280;45919;51.420;5.454;2023-01-25T05:23:51;103417.88;;;2.26;71.20
59029;BME280;45919;51.420;5.454;2023-01-25T05:24:52;103420.59;;;2.27;71.11
59029;BME280;45919;51.420;5.454;2023-01-25T05:25:54;103428.34;;;2.27;71.00
59029;BME280;45919;51.420;5.454;2023-01-25T05:27:15;103431.06;;;2.29;71.13
59029;BME280;45919;51.420;5.454;2023-01-25T05:28:17;103425.00;;;2.29;71.13
59029;BME280;45919;51.420;5.454;2023-01-25T05:29:18;103422.44;;;2.29;71.17
59029;BME280;45919;51.420;5.454;2023-01-25T05:30:20;103420.72;;;2.29;71.05
59029;BME280;45919;51.420;5.454;2023-01-25T05:31:21;103426.81;;;2.30;71.40
59029;BME280;45919;51.420;5.454;2023-01-25T05:32:23;103424.38;;;2.31;71.24
59029;BME280;45919;51.420;5.454;2023-01-25T05:33:25;103420.13;;;2.32;71.14
59029;BME280;45919;51.420;5.454;2023-01-25T05:34:26;103417.69;;;2.33;71.09
59029;BME280;45919;51.420;5.454;2023-01-25T05:35:27;103418.59;;;2.34;71.26
59029;BME280;45919;51.420;5.454;2023-01-25T05:36:29;103416.16;;;2.35;71.20
59029;BME280;45919;51.420;5.454;2023-01-25T05:37:31;103418.88;;;2.37;71.11
59029;BME280;45919;51.420;5.454;2023-01-25T05:38:32;103421.44;;;2.37;71.08
59029;BME280;45919;51.420;5.454;2023-01-25T05:39:34;103417.94;;;2.36;71.07
59029;BME280;45919;51.420;5.454;2023-01-25T05:40:35;103416.28;;;2.37;71.26
59029;BME280;45919;51.420;5.454;2023-01-25T05:41:37;103413.69;;;2.37;71.08
59029;BME280;45919;51.420;5.454;2023-01-25T05:42:38;103423.09;;;2.36;71.14